Time;durP1;ratioP1;P1;durP2;ratioP2;P2;SDS_P1;SDS_P2;PMS_P1;PMS_P2;Temp;Humidity;BMP_temperature;BMP_pressure;BME280_temperature;BME280_humidity;BME280_pressure;Samples;Min_cycle;Max_cycle;Signal;HPM_P1;HPM_P2
2021/05/27 00:00:29;;;;;;;6.30;1.47;;;14.20;94.70;;;;;;5031168;28;20187;-71
2021/05/27 00:02:57;;;;;;;3.73;1.17;;;14.50;94.60;;;;;;5019879;28;20330;-70
2021/05/27 00:05:25;;;;;;;4.30;1.40;;;14.60;94.30;;;;;;5035827;28;20179;-72
2021/05/27 00:07:53;;;;;;;5.80;1.43;;;14.70;94.30;;;;;;5034830;28;20274;-70
2021/05/27 00:10:24;;;;;;;5.10;1.30;;;14.80;93.90;;;;;;5035283;28;20617;-70
2021/05/27 00:12:51;;;;;;;5.87;1.40;;;14.80;93.70;;;;;;5035183;28;20172;-69
2021/05/27 00:15:21;;;;;;;5.80;1.40;;;14.90;93.50;;;;;;5034771;28;20185;-70
2021/05/27 00:17:48;;;;;;;5.30;1.20;;;14.90;93.80;;;;;;5033955;28;20522;-71
2021/05/27 00:20:16;;;;;;;1.67;1.13;;;15.00;93.30;;;;;;5033792;28;20592;-70
2021/05/27 00:22:44;;;;;;;4.50;1.10;;;15.00;93.10;;;;;;5035318;28;20188;-68
2021/05/27 00:25:13;;;;;;;2.53;1.30;;;15.10;93.00;;;;;;5036337;28;20668;-71
2021/05/27 00:27:42;;;;;;;4.10;1.10;;;15.00;92.40;;;;;;5035659;28;20286;-70
2021/05/27 00:30:11;;;;;;;4.27;1.00;;;15.10;92.80;;;;;;5034271;28;20211;-71
2021/05/27 00:32:39;;;;;;;4.30;1.23;;;15.10;91.50;;;;;;5035380;28;20176;-68
2021/05/27 00:35:08;;;;;;;3.77;1.10;;;15.10;91.60;;;;;;5035522;28;20207;-69
2021/05/27 00:37:35;;;;;;;3.20;1.00;;;15.10;91.70;;;;;;5035033;28;20579;-69
2021/05/27 00:40:04;;;;;;;5.73;1.30;;;15.10;91.40;;;;;;5035441;28;20184;-70
2021/05/27 00:42:33;;;;;;;2.77;1.03;;;15.10;91.50;;;;;;5031687;28;20654;-67
2021/05/27 00:45:03;;;;;;;3.73;1.23;;;15.20;91.20;;;;;;5026013;28;20190;-69
2021/05/27 00:47:33;;;;;;;8.70;1.27;;;15.20;90.70;;;;;;5030525;28;20224;-69
2021/05/27 00:50:01;;;;;;;4.97;0.83;;;15.20;90.70;;;;;;5016523;28;20179;-70
2021/05/27 00:52:28;;;;;;;4.17;1.00;;;15.40;91.00;;;;;;5032972;28;20185;-69
2021/05/27 00:54:58;;;;;;;6.37;1.60;;;15.60;90.60;;;;;;5035154;28;20231;-68
2021/05/27 00:57:36;;;;;;;7.57;1.20;;;15.70;89.90;;;;;;5034354;28;20187;-70
2021/05/27 01:00:14;;;;;;;4.50;0.90;;;15.70;90.10;;;;;;5033453;28;20647;-71
2021/05/27 01:02:44;;;;;;;3.10;0.97;;;15.90;89.30;;;;;;5015171;28;20181;-70
2021/05/27 01:05:14;;;;;;;3.07;0.83;;;16.10;89.40;;;;;;5024478;28;20177;-70
2021/05/27 01:07:42;;;;;;;4.93;1.23;;;16.10;88.70;;;;;;5023480;28;20197;-70
2021/05/27 01:10:12;;;;;;;2.30;0.90;;;16.20;88.60;;;;;;5033913;28;20194;-70
2021/05/27 01:12:39;;;;;;;3.63;1.10;;;16.20;87.60;;;;;;5033718;28;20229;-70
2021/05/27 01:18:14;;;;;;;1.77;1.03;;;16.20;87.40;;;;;;5030727;28;20650;-71
2021/05/27 01:20:43;;;;;;;4.27;0.83;;;16.50;86.60;;;;;;5035340;28;20192;-70
2021/05/27 01:23:13;;;;;;;3.93;1.00;;;16.50;86.60;;;;;;5032836;28;20216;-71
2021/05/27 01:25:47;;;;;;;3.40;1.13;;;16.60;86.50;;;;;;5033011;28;20189;-67
2021/05/27 01:28:15;;;;;;;5.97;0.97;;;16.90;85.60;;;;;;5033657;28;20560;-68
2021/05/27 01:30:43;;;;;;;8.03;1.80;;;17.00;85.00;;;;;;5032113;28;20180;-71
2021/05/27 01:33:18;;;;;;;4.03;1.10;;;17.10;84.80;;;;;;5033761;28;20196;-72
2021/05/27 01:35:46;;;;;;;2.87;1.17;;;17.40;84.50;;;;;;5033423;28;20186;-70
2021/05/27 01:38:16;;;;;;;4.33;1.00;;;17.30;83.70;;;;;;5035781;28;20302;-67
2021/05/27 01:40:45;;;;;;;6.00;1.00;;;17.40;83.70;;;;;;5032755;28;20271;-70
2021/05/27 01:43:12;;;;;;;3.23;1.00;;;17.40;82.90;;;;;;5032685;28;20294;-71
2021/05/27 01:45:41;;;;;;;4.30;1.00;;;17.40;82.00;;;;;;5032869;28;20192;-70
2021/05/27 01:48:09;;;;;;;2.07;1.07;;;17.60;82.00;;;;;;5030095;28;20304;-71
2021/05/27 01:50:39;;;;;;;3.47;0.90;;;17.50;81.40;;;;;;5032727;28;20545;-70
2021/05/27 01:53:07;;;;;;;8.20;1.33;;;17.40;82.00;;;;;;5032261;28;20250;-73
2021/05/27 01:55:40;;;;;;;2.53;1.10;;;17.50;81.40;;;;;;5032973;28;20183;-69
2021/05/27 01:58:07;;;;;;;1.97;0.90;;;17.40;80.50;;;;;;5032583;28;20197;-69
2021/05/27 02:00:35;;;;;;;7.33;1.33;;;17.50;80.50;;;;;;5031765;28;20224;-72
2021/05/27 02:03:03;;;;;;;7.50;1.20;;;17.60;79.90;;;;;;5031300;28;20181;-69
2021/05/27 02:05:30;;;;;;;8.10;1.20;;;17.80;79.50;;;;;;5032366;28;20193;-71
2021/05/27 02:07:59;;;;;;;3.33;1.23;;;18.00;79.90;;;;;;5031326;28;20221;-71
2021/05/27 02:10:26;;;;;;;4.40;1.07;;;18.20;78.90;;;;;;5032467;28;20191;-73
2021/05/27 02:12:54;;;;;;;2.77;1.13;;;18.40;78.60;;;;;;5032665;28;20223;-75
2021/05/27 02:15:21;;;;;;;3.90;1.00;;;18.40;77.20;;;;;;5028780;28;20184;-76
2021/05/27 02:17:48;;;;;;;2.67;0.93;;;18.20;78.10;;;;;;5032987;28;20238;-70
2021/05/27 02:20:16;;;;;;;6.33;1.33;;;18.10;77.20;;;;;;5031600;28;20184;-71
2021/05/27 02:22:44;;;;;;;2.50;0.90;;;18.20;78.40;;;;;;5028020;28;20271;-71
2021/05/27 02:25:12;;;;;;;2.77;0.90;;;18.30;77.10;;;;;;5031905;28;20215;-69
2021/05/27 02:27:40;;;;;;;2.23;0.97;;;18.40;76.60;;;;;;5026801;28;20531;-70
2021/05/27 02:30:08;;;;;;;2.10;0.80;;;18.40;76.00;;;;;;5029577;28;20211;-69
2021/05/27 02:32:35;;;;;;;3.40;0.80;;;18.30;76.10;;;;;;5027322;28;20185;-69
2021/05/27 02:35:03;;;;;;;5.30;1.30;;;18.40;76.40;;;;;;5030719;28;20249;-69
2021/05/27 02:37:30;;;;;;;3.63;1.37;;;18.60;76.50;;;;;;5031023;28;20188;-68
2021/05/27 02:39:58;;;;;;;3.20;1.07;;;18.80;76.00;;;;;;5031607;28;20208;-70
2021/05/27 02:42:26;;;;;;;5.53;1.00;;;18.60;76.10;;;;;;5030880;28;20191;-69
2021/05/27 02:44:53;;;;;;;5.63;1.10;;;18.80;76.10;;;;;;5023866;28;20252;-70
2021/05/27 02:47:24;;;;;;;3.30;0.93;;;19.10;76.80;;;;;;5016224;28;20723;-69
2021/05/27 02:49:52;;;;;;;3.27;1.17;;;19.50;75.50;;;;;;5032805;28;20188;-71
2021/05/27 02:52:19;;;;;;;3.43;1.03;;;19.50;74.50;;;;;;5032805;28;20199;-70
2021/05/27 02:54:47;;;;;;;1.90;0.83;;;19.20;75.20;;;;;;5031971;28;20185;-71
2021/05/27 02:57:14;;;;;;;1.87;0.77;;;19.50;75.40;;;;;;5032746;28;20189;-69
2021/05/27 02:59:41;;;;;;;3.37;0.93;;;19.50;74.20;;;;;;5033049;28;20180;-70
2021/05/27 03:02:09;;;;;;;3.83;1.20;;;19.50;75.10;;;;;;5027220;28;20442;-69
2021/05/27 03:04:36;;;;;;;6.03;1.13;;;19.70;74.30;;;;;;5033143;28;20184;-69
2021/05/27 03:07:04;;;;;;;2.63;0.90;;;19.70;74.20;;;;;;5031679;28;20219;-71
2021/05/27 03:09:31;;;;;;;3.60;0.87;;;19.60;73.80;;;;;;5030282;28;20246;-71
2021/05/27 03:11:59;;;;;;;1.43;0.67;;;19.80;73.20;;;;;;5031204;28;20587;-69
2021/05/27 03:14:26;;;;;;;2.93;0.93;;;19.70;72.90;;;;;;5026215;28;20199;-71
2021/05/27 03:16:53;;;;;;;2.53;0.97;;;19.70;74.00;;;;;;5031638;28;20181;-71
2021/05/27 03:19:21;;;;;;;1.63;0.83;;;19.60;72.70;;;;;;5031819;28;20236;-68
2021/05/27 03:21:48;;;;;;;2.77;0.80;;;19.60;73.20;;;;;;5029092;28;20597;-70
2021/05/27 03:24:16;;;;;;;4.00;1.00;;;19.60;72.60;;;;;;5031418;28;20192;-71
2021/05/27 03:26:43;;;;;;;3.90;0.70;;;19.50;72.70;;;;;;5024183;28;20180;-70
2021/05/27 03:29:13;;;;;;;3.23;0.80;;;19.40;73.00;;;;;;5031476;28;20267;-68
2021/05/27 03:31:40;;;;;;;3.87;1.20;;;19.80;73.40;;;;;;5030472;28;20172;-69
2021/05/27 03:34:08;;;;;;;3.70;0.90;;;20.20;72.80;;;;;;5031315;28;20266;-71
2021/05/27 03:36:35;;;;;;;3.00;0.90;;;19.80;71.90;;;;;;5030528;28;20617;-69
2021/05/27 03:39:04;;;;;;;4.27;0.83;;;19.80;72.90;;;;;;5029774;28;20254;-71
2021/05/27 03:41:32;;;;;;;1.83;0.80;;;20.00;72.10;;;;;;5029676;28;20172;-68
2021/05/27 03:43:59;;;;;;;1.87;0.90;;;20.10;72.30;;;;;;5031104;28;20180;-69
2021/05/27 03:46:26;;;;;;;1.93;0.60;;;20.10;71.70;;;;;;5031287;28;20185;-69
2021/05/27 03:48:55;;;;;;;1.53;0.70;;;20.10;71.80;;;;;;5030761;28;20327;-70
2021/05/27 03:51:22;;;;;;;2.67;0.80;;;20.10;72.20;;;;;;5030161;28;20191;-72
2021/05/27 03:53:52;;;;;;;2.63;0.60;;;20.30;71.90;;;;;;5046817;28;20192;-71
2021/05/27 03:56:20;;;;;;;4.30;0.80;;;20.70;72.50;;;;;;5029205;28;21389;-69
2021/05/27 04:01:32;;;;;;;5.30;0.70;;;21.10;70.60;;;;;;5029617;28;20246;-71
2021/05/27 04:09:30;;;;;;;2.00;0.70;;;21.30;69.20;;;;;;5030631;28;20565;-72
2021/05/27 04:14:42;;;;;;;2.47;0.67;;;21.50;69.00;;;;;;5030908;28;20318;-71
2021/05/27 04:17:11;;;;;;;2.50;0.80;;;21.80;68.80;;;;;;5031834;28;20168;-70
2021/05/27 04:19:38;;;;;;;2.27;0.63;;;22.00;68.10;;;;;;5029837;28;20192;-69
2021/05/27 04:22:05;;;;;;;2.43;0.87;;;22.00;67.90;;;;;;5030893;28;20180;-69
2021/05/27 04:24:33;;;;;;;3.30;0.80;;;22.00;68.10;;;;;;5030422;28;20220;-72
2021/05/27 04:27:00;;;;;;;1.37;0.60;;;21.90;67.80;;;;;;5031431;28;20211;-70
2021/05/27 04:29:27;;;;;;;2.20;0.80;;;21.90;67.70;;;;;;5031633;28;20687;-69
2021/05/27 04:31:55;;;;;;;3.23;0.70;;;22.00;68.20;;;;;;5031521;28;20218;-73
2021/05/27 04:34:22;;;;;;;1.27;0.70;;;22.00;67.50;;;;;;5046062;28;20184;-70
2021/05/27 04:36:49;;;;;;;3.50;0.90;;;21.90;67.70;;;;;;5031266;28;20260;-69
2021/05/27 04:39:16;;;;;;;2.57;0.87;;;22.10;67.30;;;;;;5031495;28;20212;-72
2021/05/27 04:41:44;;;;;;;2.17;0.70;;;22.10;67.50;;;;;;5031685;28;20189;-72
2021/05/27 04:44:11;;;;;;;1.70;0.77;;;22.10;66.20;;;;;;5031511;28;20195;-74
2021/05/27 04:46:39;;;;;;;0.90;0.50;;;22.10;66.90;;;;;;5042116;28;20189;-72
2021/05/27 04:49:06;;;;;;;1.43;0.60;;;21.90;66.40;;;;;;5031223;28;20223;-74
2021/05/27 04:51:34;;;;;;;1.90;0.60;;;21.60;67.50;;;;;;5050383;28;20256;-69
2021/05/27 04:54:01;;;;;;;4.07;1.13;;;21.50;67.50;;;;;;5034369;28;20288;-70
2021/05/27 04:56:28;;;;;;;2.07;0.80;;;21.60;67.30;;;;;;5033467;28;20275;-71
2021/05/27 04:58:56;;;;;;;4.90;0.80;;;21.50;67.50;;;;;;5033914;28;20512;-71
2021/05/27 05:01:24;;;;;;;2.00;0.63;;;21.50;67.70;;;;;;5030279;28;20655;-71
2021/05/27 05:03:52;;;;;;;1.30;0.50;;;21.70;68.00;;;;;;5033682;28;20492;-71
2021/05/27 05:06:19;;;;;;;3.40;0.60;;;21.50;67.20;;;;;;5032498;28;20204;-69
2021/05/27 05:08:46;;;;;;;0.87;0.50;;;21.80;67.60;;;;;;5034256;28;20220;-72
2021/05/27 05:11:15;;;;;;;2.83;0.57;;;22.00;66.70;;;;;;5034239;28;20176;-67
2021/05/27 05:13:44;;;;;;;1.30;0.60;;;21.70;66.70;;;;;;5033954;28;20189;-72
2021/05/27 05:16:11;;;;;;;1.47;0.70;;;21.50;67.10;;;;;;5034055;28;20169;-71
2021/05/27 05:18:38;;;;;;;6.33;0.87;;;21.30;67.90;;;;;;5033145;28;20176;-68
2021/05/27 05:21:07;;;;;;;4.00;0.70;;;21.70;67.90;;;;;;5033454;28;20176;-71
2021/05/27 05:23:35;;;;;;;2.77;0.80;;;22.00;67.10;;;;;;5033268;28;20187;-69
2021/05/27 05:26:02;;;;;;;1.83;0.70;;;22.50;66.50;;;;;;5033989;28;20187;-69
2021/05/27 05:28:29;;;;;;;1.73;0.60;;;22.20;66.30;;;;;;5033341;28;20575;-68
2021/05/27 05:30:57;;;;;;;1.63;0.70;;;22.40;65.60;;;;;;5032288;28;20599;-71
2021/05/27 05:33:24;;;;;;;2.33;0.70;;;22.10;65.70;;;;;;5030417;28;20181;-71
2021/05/27 05:35:52;;;;;;;1.60;0.70;;;21.70;66.40;;;;;;5033643;28;20635;-72
2021/05/27 05:38:19;;;;;;;1.10;0.47;;;21.70;66.80;;;;;;5027549;28;20224;-70
2021/05/27 05:40:47;;;;;;;1.60;0.57;;;21.70;66.50;;;;;;5032747;28;20567;-69
2021/05/27 05:43:14;;;;;;;3.93;0.97;;;21.70;66.60;;;;;;5033707;28;20622;-71
2021/05/27 05:45:41;;;;;;;3.03;0.77;;;21.20;67.40;;;;;;5022624;28;20644;-70
2021/05/27 05:48:09;;;;;;;2.50;0.70;;;21.30;68.00;;;;;;5028273;28;20232;-70
2021/05/27 05:50:45;;;;;;;3.10;0.70;;;20.90;67.90;;;;;;5033205;28;20227;-70
2021/05/27 05:53:19;;;;;;;4.63;1.00;;;21.00;67.90;;;;;;5033176;28;20609;-70
2021/05/27 05:55:47;;;;;;;0.73;0.50;;;21.40;67.90;;;;;;5033449;28;20169;-70
2021/05/27 05:58:14;;;;;;;3.50;0.60;;;20.80;67.20;;;;;;5033088;28;20184;-70
2021/05/27 06:00:41;;;;;;;1.97;1.00;;;21.00;67.40;;;;;;5032906;28;20647;-69
2021/05/27 06:03:09;;;;;;;2.40;0.80;;;21.30;66.90;;;;;;5032596;28;20617;-69
2021/05/27 06:05:36;;;;;;;3.07;0.80;;;21.40;66.80;;;;;;5022638;28;20536;-69
2021/05/27 06:08:04;;;;;;;3.30;0.67;;;21.20;67.10;;;;;;5031244;28;20208;-69
2021/05/27 06:10:31;;;;;;;1.80;0.60;;;20.40;67.90;;;;;;5027644;28;20180;-71
2021/05/27 06:12:59;;;;;;;0.90;0.60;;;19.60;69.80;;;;;;5031690;28;20172;-69
2021/05/27 06:15:27;;;;;;;1.83;0.73;;;19.40;70.70;;;;;;5032402;28;20219;-70
2021/05/27 06:17:55;;;;;;;5.97;0.83;;;19.20;71.10;;;;;;5032756;28;20177;-68
2021/05/27 06:20:23;;;;;;;2.97;0.83;;;19.00;71.60;;;;;;5033315;28;20219;-69
2021/05/27 06:22:51;;;;;;;1.93;0.60;;;18.90;72.30;;;;;;5033694;28;20625;-71
2021/05/27 06:25:21;;;;;;;0.90;0.73;;;18.80;72.50;;;;;;5032308;28;20519;-69
2021/05/27 06:27:48;;;;;;;4.47;0.90;;;18.50;73.10;;;;;;5033191;28;20208;-70
2021/05/27 06:30:16;;;;;;;2.53;1.07;;;18.40;74.00;;;;;;5033100;28;20204;-69
2021/05/27 06:32:44;;;;;;;2.80;1.00;;;18.30;74.50;;;;;;5033286;28;20762;-71
2021/05/27 06:35:14;;;;;;;2.20;0.80;;;18.10;74.70;;;;;;5033003;28;20646;-69
2021/05/27 06:37:43;;;;;;;3.53;1.00;;;18.00;75.30;;;;;;5032150;28;20218;-67
2021/05/27 06:40:17;;;;;;;4.47;1.07;;;17.90;76.00;;;;;;5029928;28;20184;-70
2021/05/27 06:42:45;;;;;;;2.03;1.20;;;17.90;76.60;;;;;;5029455;28;20187;-69
2021/05/27 06:45:15;;;;;;;3.20;1.13;;;17.70;77.50;;;;;;5031698;28;20273;-70
2021/05/27 06:47:43;;;;;;;11.10;1.47;;;17.60;78.00;;;;;;5032158;28;20706;-68
2021/05/27 06:50:11;;;;;;;8.27;1.17;;;17.50;78.40;;;;;;5032313;28;20177;-69
2021/05/27 06:52:38;;;;;;;1.60;0.93;;;17.40;78.30;;;;;;5031391;28;20185;-73
2021/05/27 06:55:07;;;;;;;3.87;1.40;;;17.30;78.60;;;;;;5031903;28;20278;-69
2021/05/27 06:57:35;;;;;;;3.37;0.90;;;17.30;79.00;;;;;;5024914;28;20195;-71
2021/05/27 07:00:05;;;;;;;2.30;1.00;;;17.20;78.90;;;;;;5026728;28;20188;-71
2021/05/27 07:02:34;;;;;;;4.43;1.03;;;17.10;79.20;;;;;;5031918;28;20180;-72
2021/05/27 07:05:02;;;;;;;6.20;0.90;;;17.00;79.70;;;;;;5031507;28;20177;-68
2021/05/27 07:07:29;;;;;;;3.00;0.90;;;17.00;79.80;;;;;;5032351;28;20243;-70
2021/05/27 07:09:57;;;;;;;3.43;0.87;;;16.90;79.70;;;;;;5032445;28;20238;-70
2021/05/27 07:12:24;;;;;;;4.07;1.30;;;16.90;80.00;;;;;;5030584;28;20179;-69
2021/05/27 07:14:52;;;;;;;2.83;1.10;;;16.80;80.30;;;;;;5032403;28;20184;-70
2021/05/27 07:17:19;;;;;;;2.93;1.20;;;16.70;81.00;;;;;;5032665;28;20572;-68
2021/05/27 07:19:46;;;;;;;4.17;1.30;;;16.70;80.90;;;;;;5032640;28;20185;-69
2021/05/27 07:22:14;;;;;;;6.37;1.70;;;16.60;81.50;;;;;;5032460;28;20211;-70
2021/05/27 07:24:42;;;;;;;5.47;1.47;;;16.60;81.50;;;;;;5031169;28;20222;-72
2021/05/27 07:27:09;;;;;;;5.43;1.27;;;16.50;81.90;;;;;;5032080;28;20226;-71
2021/05/27 07:29:36;;;;;;;2.17;1.20;;;16.50;82.10;;;;;;5032750;28;20618;-71
2021/05/27 07:32:06;;;;;;;2.47;1.00;;;16.40;82.00;;;;;;5028304;28;20215;-70
2021/05/27 07:34:34;;;;;;;4.03;1.53;;;16.40;82.70;;;;;;5024537;28;20184;-70
2021/05/27 07:37:01;;;;;;;5.83;1.80;;;16.30;82.40;;;;;;5032208;28;20183;-69
2021/05/27 07:39:29;;;;;;;2.77;1.20;;;16.30;83.00;;;;;;5027402;28;20239;-69
2021/05/27 07:41:56;;;;;;;3.17;1.23;;;16.20;83.00;;;;;;5032068;28;20184;-73
2021/05/27 07:44:24;;;;;;;2.10;1.13;;;16.10;83.30;;;;;;5029784;28;20689;-70
2021/05/27 07:46:51;;;;;;;3.00;1.40;;;16.10;83.50;;;;;;5032279;28;20191;-70
2021/05/27 07:49:18;;;;;;;2.33;1.30;;;16.00;83.20;;;;;;5035135;28;20298;-71
2021/05/27 07:51:47;;;;;;;4.93;1.47;;;16.00;83.20;;;;;;5022463;28;20690;-70
2021/05/27 07:54:15;;;;;;;4.13;1.50;;;16.00;83.30;;;;;;5031309;28;20191;-68
2021/05/27 07:56:43;;;;;;;3.63;1.30;;;15.90;83.80;;;;;;5034893;28;20182;-69
2021/05/27 07:59:13;;;;;;;4.50;1.40;;;15.90;83.80;;;;;;5031657;28;20192;-72
2021/05/27 08:01:41;;;;;;;6.40;1.63;;;15.80;83.90;;;;;;5033423;28;20188;-70
2021/05/27 08:04:10;;;;;;;3.47;1.50;;;15.80;84.00;;;;;;5032384;28;20299;-69
2021/05/27 08:06:37;;;;;;;3.30;1.77;;;15.80;84.30;;;;;;5031936;28;20226;-69
2021/05/27 08:09:07;;;;;;;5.13;1.37;;;15.80;84.30;;;;;;5028256;28;20220;-68
2021/05/27 08:11:44;;;;;;;3.87;1.47;;;15.70;84.40;;;;;;5045531;28;20176;-69
2021/05/27 08:14:12;;;;;;;4.73;1.80;;;15.70;84.80;;;;;;5043230;28;20188;-69
2021/05/27 08:16:41;;;;;;;3.47;1.67;;;15.70;84.80;;;;;;5030132;28;20662;-69
2021/05/27 08:19:11;;;;;;;3.27;1.40;;;15.60;84.80;;;;;;5046250;28;20204;-69
2021/05/27 08:21:38;;;;;;;4.17;1.43;;;15.60;85.10;;;;;;5032000;28;20188;-69
2021/05/27 08:24:06;;;;;;;4.93;1.43;;;15.60;85.20;;;;;;5034560;28;20184;-70
2021/05/27 08:26:36;;;;;;;3.70;1.40;;;15.60;85.40;;;;;;5029216;28;20670;-70
2021/05/27 08:29:04;;;;;;;5.43;1.70;;;15.50;85.40;;;;;;5031935;28;20213;-68
2021/05/27 08:31:38;;;;;;;6.93;1.73;;;15.50;85.70;;;;;;5037022;28;20200;-69
2021/05/27 08:34:06;;;;;;;4.57;1.70;;;15.50;86.00;;;;;;5035918;28;20643;-70
2021/05/27 08:36:34;;;;;;;6.40;2.10;;;15.40;86.40;;;;;;5036529;28;20179;-68
2021/05/27 08:39:02;;;;;;;6.70;2.73;;;15.30;86.10;;;;;;5037628;28;20225;-70
2021/05/27 08:41:30;;;;;;;4.33;2.70;;;15.30;86.20;;;;;;5035300;28;20194;-68
2021/05/27 08:43:58;;;;;;;3.83;1.70;;;15.30;86.80;;;;;;5034863;28;20216;-68
2021/05/27 08:46:25;;;;;;;4.13;1.90;;;15.30;87.00;;;;;;5032524;28;20224;-70
2021/05/27 08:48:54;;;;;;;3.73;1.50;;;15.20;87.00;;;;;;5041373;28;20711;-70
2021/05/27 08:51:21;;;;;;;5.17;2.20;;;15.20;87.60;;;;;;5042798;28;20177;-69
2021/05/27 08:53:49;;;;;;;6.40;3.23;;;15.10;87.70;;;;;;5035547;28;20264;-69
2021/05/27 08:56:16;;;;;;;4.50;2.73;;;15.10;87.80;;;;;;5035097;28;20186;-69
2021/05/27 08:58:44;;;;;;;3.87;1.77;;;15.00;88.20;;;;;;5034722;28;20543;-70
2021/05/27 09:01:19;;;;;;;6.05;2.20;;;15.00;87.80;;;;;;5033760;28;20419;-73
2021/05/27 09:03:48;;;;;;;5.60;1.90;;;15.00;88.30;;;;;;5034526;28;20267;-69
2021/05/27 09:06:15;;;;;;;5.30;1.90;;;15.00;88.40;;;;;;5043297;28;20192;-70
2021/05/27 09:08:43;;;;;;;4.87;1.70;;;15.00;88.80;;;;;;5043929;28;20300;-70
2021/05/27 09:11:16;;;;;;;3.93;1.70;;;14.90;88.90;;;;;;5034883;28;20235;-68
2021/05/27 09:14:01;;;;;;;5.77;1.87;;;14.90;89.70;;;;;;5034618;28;20654;-69
2021/05/27 09:16:28;;;;;;;4.90;1.77;;;14.80;89.60;;;;;;5033846;28;20189;-70
2021/05/27 09:18:56;;;;;;;2.47;1.70;;;14.80;90.00;;;;;;5033157;28;20177;-69
2021/05/27 09:21:38;;;;;;;4.43;1.60;;;14.70;90.10;;;;;;5030314;28;20203;-69
2021/05/27 09:24:07;;;;;;;4.57;2.27;;;14.70;89.50;;;;;;5034916;28;20279;-69
2021/05/27 09:26:50;;;;;;;4.53;1.63;;;14.70;89.80;;;;;;5028829;28;20197;-70
2021/05/27 09:29:18;;;;;;;8.63;1.83;;;14.70;89.90;;;;;;5029336;28;20247;-73
2021/05/27 09:32:04;;;;;;;2.30;1.30;;;14.60;89.70;;;;;;5033370;28;20195;-73
2021/05/27 09:34:42;;;;;;;4.30;1.60;;;14.70;89.60;;;;;;5034536;28;20647;-69
2021/05/27 09:37:19;;;;;;;5.70;2.57;;;14.70;90.10;;;;;;5030213;28;20177;-69
2021/05/27 09:39:50;;;;;;;5.40;1.80;;;14.60;89.90;;;;;;5032560;28;20655;-70
2021/05/27 09:42:17;;;;;;;6.63;1.67;;;14.60;90.20;;;;;;5033867;28;20183;-72
2021/05/27 09:44:45;;;;;;;7.83;2.07;;;14.60;90.00;;;;;;5033951;28;20181;-71
2021/05/27 09:47:12;;;;;;;4.07;1.60;;;14.60;90.00;;;;;;5032834;28;20230;-72
2021/05/27 09:50:09;;;;;;;6.97;1.70;;;14.60;90.10;;;;;;5031639;28;20193;-70
2021/05/27 09:52:49;;;;;;;2.50;1.40;;;14.60;90.00;;;;;;5028859;28;20229;-71
2021/05/27 09:55:19;;;;;;;2.33;1.47;;;14.50;90.20;;;;;;5033880;28;20659;-70
2021/05/27 09:57:49;;;;;;;3.03;1.40;;;14.60;90.30;;;;;;5033229;28;20239;-71
2021/05/27 10:00:23;;;;;;;3.03;1.53;;;14.50;90.30;;;;;;5033175;28;20176;-70
2021/05/27 10:02:51;;;;;;;3.10;1.53;;;14.40;90.90;;;;;;5032475;28;20208;-70
2021/05/27 10:05:19;;;;;;;4.67;1.80;;;14.40;90.70;;;;;;5033271;28;20268;-72
2021/05/27 10:07:49;;;;;;;3.97;1.33;;;14.30;91.10;;;;;;5025853;28;20297;-72
2021/05/27 10:10:19;;;;;;;4.10;1.43;;;14.30;91.20;;;;;;5030326;28;20571;-72
2021/05/27 10:12:50;;;;;;;4.17;1.40;;;14.20;91.20;;;;;;5032761;28;20659;-72
2021/05/27 10:15:20;;;;;;;5.33;1.53;;;14.20;91.10;;;;;;5032696;28;20181;-70
2021/05/27 10:17:48;;;;;;;6.70;1.57;;;14.20;91.10;;;;;;5032423;28;20191;-69
2021/05/27 10:20:18;;;;;;;4.87;1.80;;;14.20;91.30;;;;;;5031683;28;20553;-71
2021/05/27 10:22:45;;;;;;;2.90;1.40;;;14.10;91.80;;;;;;5029757;28;20189;-71
2021/05/27 10:25:16;;;;;;;2.73;1.20;;;14.10;91.70;;;;;;5032335;28;20177;-71
2021/05/27 10:27:49;;;;;;;6.27;1.60;;;14.10;91.70;;;;;;5048141;28;20302;-69
2021/05/27 10:30:21;;;;;;;5.20;1.70;;;14.00;91.80;;;;;;5033345;28;20179;-70
2021/05/27 10:32:53;;;;;;;4.57;2.00;;;14.00;92.00;;;;;;5032748;28;20271;-70
2021/05/27 10:35:44;;;;;;;6.23;1.60;;;14.00;92.10;;;;;;5032125;28;20267;-71
2021/05/27 10:38:11;;;;;;;4.10;1.70;;;13.90;92.10;;;;;;5032607;28;20266;-71
2021/05/27 10:40:40;;;;;;;3.17;2.07;;;13.90;92.20;;;;;;5032181;28;20223;-70
2021/05/27 10:43:11;;;;;;;2.07;1.47;;;13.90;92.20;;;;;;5032571;28;20189;-68
2021/05/27 10:46:02;;;;;;;6.97;1.63;;;13.90;92.30;;;;;;5025408;28;20193;-69
2021/05/27 10:48:31;;;;;;;5.63;2.07;;;13.80;92.60;;;;;;5029944;28;20683;-69
2021/05/27 10:51:10;;;;;;;5.80;1.67;;;13.80;92.80;;;;;;5032170;28;20179;-68
2021/05/27 10:53:39;;;;;;;2.63;1.40;;;13.70;92.80;;;;;;5031779;28;20189;-69
2021/05/27 10:56:06;;;;;;;6.27;1.50;;;13.70;92.80;;;;;;5033034;28;20181;-71
2021/05/27 10:59:06;;;;;;;5.70;1.97;;;13.70;93.00;;;;;;5032078;28;20326;-69
2021/05/27 11:01:35;;;;;;;5.23;1.60;;;13.60;93.20;;;;;;5026014;28;20188;-70
2021/05/27 11:04:05;;;;;;;3.47;1.67;;;13.60;93.60;;;;;;5032170;28;20781;-70
2021/05/27 11:06:35;;;;;;;4.53;1.80;;;13.50;93.40;;;;;;5031800;28;20210;-68
2021/05/27 11:09:13;;;;;;;3.93;1.77;;;13.50;93.70;;;;;;5030702;28;20208;-69
2021/05/27 11:11:46;;;;;;;2.90;1.43;;;13.50;93.80;;;;;;5031042;28;20184;-68
2021/05/27 11:14:26;;;;;;;4.03;1.67;;;13.40;93.90;;;;;;5032170;28;20184;-70
2021/05/27 11:17:03;;;;;;;4.73;1.80;;;13.40;93.90;;;;;;5032677;28;20234;-69
2021/05/27 11:20:02;;;;;;;3.30;1.50;;;13.40;93.90;;;;;;5032008;28;20239;-69
2021/05/27 11:22:38;;;;;;;2.90;1.23;;;13.30;94.10;;;;;;5031455;28;20259;-69
2021/05/27 11:25:12;;;;;;;2.70;1.40;;;13.30;94.30;;;;;;5031927;28;20616;-70
2021/05/27 11:27:46;;;;;;;6.87;2.30;;;13.20;94.20;;;;;;5027810;28;20357;-70
2021/05/27 11:30:25;;;;;;;6.53;1.77;;;13.20;94.40;;;;;;5032159;28;20185;-69
2021/05/27 11:33:00;;;;;;;5.20;1.97;;;13.20;94.40;;;;;;5029431;28;20195;-70
2021/05/27 11:35:37;;;;;;;5.03;1.57;;;13.20;94.40;;;;;;5026858;28;20701;-69
2021/05/27 11:38:12;;;;;;;3.03;1.53;;;13.20;94.60;;;;;;5031848;28;20836;-69
2021/05/27 11:40:41;;;;;;;5.97;1.60;;;13.10;94.60;;;;;;5032187;28;20191;-69
2021/05/27 11:43:08;;;;;;;3.87;1.30;;;13.10;95.10;;;;;;5032217;28;20187;-69
2021/05/27 11:45:51;;;;;;;4.23;1.63;;;13.10;95.20;;;;;;5031025;28;20188;-69
2021/05/27 11:50:50;;;;;;;5.80;1.60;;;13.00;95.30;;;;;;5031902;28;20165;-68
2021/05/27 11:53:23;;;;;;;7.17;2.00;;;13.00;95.70;;;;;;5031196;28;20311;-68
2021/05/27 11:55:58;;;;;;;6.47;1.77;;;12.90;96.10;;;;;;5031713;28;20234;-68
2021/05/27 11:58:43;;;;;;;3.13;1.70;;;13.00;95.90;;;;;;5032205;28;20192;-68
2021/05/27 12:01:14;;;;;;;5.27;1.77;;;12.90;95.90;;;;;;5035952;28;20172;-70
2021/05/27 12:03:57;;;;;;;3.37;1.70;;;12.90;96.50;;;;;;5035964;28;20181;-68
2021/05/27 12:06:25;;;;;;;3.73;1.40;;;12.80;96.20;;;;;;5035756;28;20314;-68
2021/05/27 12:08:53;;;;;;;6.00;1.60;;;12.80;96.30;;;;;;5035606;28;20315;-72
2021/05/27 12:11:31;;;;;;;4.13;1.40;;;12.80;96.10;;;;;;5032558;28;20658;-68
2021/05/27 12:14:02;;;;;;;4.90;1.50;;;12.80;96.20;;;;;;5035480;28;20271;-69
2021/05/27 12:16:37;;;;;;;2.60;1.37;;;12.90;95.90;;;;;;5033726;28;20184;-71
2021/05/27 12:19:07;;;;;;;2.20;1.10;;;12.90;95.80;;;;;;5035557;28;20218;-69
2021/05/27 12:21:36;;;;;;;3.00;1.40;;;12.90;95.80;;;;;;5035610;28;20240;-71
2021/05/27 12:24:03;;;;;;;4.37;1.23;;;12.90;96.00;;;;;;5035503;28;20181;-70
2021/05/27 12:26:32;;;;;;;3.03;1.30;;;12.90;96.00;;;;;;5034727;28;20187;-68
2021/05/27 12:28:59;;;;;;;1.50;1.20;;;12.90;96.20;;;;;;5033770;28;20215;-71
2021/05/27 12:31:31;;;;;;;4.97;1.23;;;12.90;96.10;;;;;;5035138;28;20263;-70
2021/05/27 12:34:06;;;;;;;2.53;1.37;;;12.90;96.10;;;;;;5051073;28;20184;-69
2021/05/27 12:36:49;;;;;;;3.80;1.00;;;12.80;96.60;;;;;;5035178;28;20184;-71
2021/05/27 12:39:31;;;;;;;3.67;1.50;;;12.80;96.40;;;;;;5035615;28;20247;-68
2021/05/27 12:41:59;;;;;;;3.23;1.30;;;12.70;96.60;;;;;;5035312;28;20191;-68
2021/05/27 12:44:40;;;;;;;3.13;1.30;;;12.60;96.80;;;;;;5033905;28;20189;-69
2021/05/27 12:47:13;;;;;;;3.30;1.27;;;12.60;96.90;;;;;;5023162;28;20173;-68
2021/05/27 12:49:41;;;;;;;2.90;1.20;;;12.60;97.20;;;;;;5035207;28;20220;-69
2021/05/27 12:52:08;;;;;;;2.03;1.53;;;12.50;97.20;;;;;;5035086;28;20208;-69
2021/05/27 12:54:36;;;;;;;2.63;1.37;;;12.50;97.30;;;;;;5035345;28;20413;-68
2021/05/27 12:57:08;;;;;;;3.67;1.40;;;12.40;97.70;;;;;;5035246;28;20274;-69
2021/05/27 12:59:38;;;;;;;3.70;1.70;;;12.40;97.80;;;;;;5035328;28;20204;-70
2021/05/27 13:02:10;;;;;;;2.03;1.40;;;12.30;98.00;;;;;;5035353;28;20240;-72
2021/05/27 13:04:43;;;;;;;4.30;1.37;;;12.30;98.20;;;;;;5034852;28;20199;-72
2021/05/27 13:07:13;;;;;;;3.00;1.47;;;12.30;98.30;;;;;;5035204;28;20533;-72
2021/05/27 13:09:49;;;;;;;4.13;1.33;;;12.30;98.40;;;;;;5033297;28;20686;-72
2021/05/27 13:12:21;;;;;;;1.10;1.00;;;12.30;98.70;;;;;;5033851;28;20191;-70
2021/05/27 13:15:10;;;;;;;2.63;1.30;;;12.30;98.70;;;;;;5034398;28;20188;-69
2021/05/27 13:17:40;;;;;;;1.40;1.20;;;12.20;98.80;;;;;;5021628;28;20543;-69